createdAt,value
2022-08-11T00:02:34.214Z,21.70
2022-08-11T00:05:07.140Z,21.70
2022-08-11T00:07:36.720Z,21.70
2022-08-11T00:10:05.215Z,21.70
2022-08-11T00:12:33.584Z,21.80
2022-08-11T00:15:03.140Z,21.70
2022-08-11T00:17:33.828Z,21.70
2022-08-11T00:20:15.055Z,21.70
2022-08-11T00:22:47.374Z,21.70
2022-08-11T00:25:17.758Z,21.60
2022-08-11T00:27:47.110Z,21.60
2022-08-11T00:30:16.617Z,21.50
2022-08-11T00:32:53.756Z,21.50
2022-08-11T00:35:53.703Z,21.40
2022-08-11T00:38:18.208Z,21.30
2022-08-11T00:40:53.314Z,21.30
2022-08-11T00:43:27.614Z,21.30
2022-08-11T00:46:15.836Z,21.30
2022-08-11T00:48:54.766Z,21.30
2022-08-11T00:52:04.270Z,21.10
2022-08-11T00:54:44.980Z,21.10
2022-08-11T00:57:52.156Z,21.10
2022-08-11T01:00:23.278Z,21.10
2022-08-11T01:03:19.228Z,21.00
2022-08-11T01:06:01.984Z,20.90
2022-08-11T01:09:22.235Z,20.90
2022-08-11T01:12:22.653Z,20.70
2022-08-11T01:15:42.446Z,20.40
2022-08-11T01:19:14.661Z,20.10
2022-08-11T01:22:21.350Z,19.90
2022-08-11T01:25:19.857Z,19.80
2022-08-11T01:28:22.956Z,19.70
2022-08-11T01:31:31.437Z,19.60
2022-08-11T01:34:30.054Z,19.40
2022-08-11T01:37:27.989Z,19.30
2022-08-11T01:40:26.428Z,19.20
2022-08-11T01:43:53.840Z,19.20
2022-08-11T01:46:28.382Z,19.10
2022-08-11T01:50:05.870Z,18.90
2022-08-11T01:52:09.525Z,18.80
2022-08-11T01:54:44.675Z,18.70
2022-08-11T01:57:22.613Z,18.50
2022-08-11T01:59:55.520Z,18.50
2022-08-11T02:02:47.817Z,18.30
2022-08-11T02:05:29.923Z,18.20
2022-08-11T02:08:06.587Z,18.10
2022-08-11T02:11:08.484Z,18.10
2022-08-11T02:13:48.873Z,18.00
2022-08-11T02:16:23.464Z,18.00
2022-08-11T02:19:13.668Z,18.00
2022-08-11T02:22:05.349Z,18.00
2022-08-11T02:24:42.367Z,18.00
2022-08-11T02:27:17.371Z,18.00
2022-08-11T02:29:52.607Z,17.90
2022-08-11T02:32:45.434Z,18.00
2022-08-11T02:35:19.919Z,17.90
2022-08-11T02:37:54.411Z,17.90
2022-08-11T02:40:39.504Z,17.90
2022-08-11T02:43:15.017Z,17.90
2022-08-11T02:46:02.271Z,17.90
2022-08-11T02:49:09.075Z,17.80
2022-08-11T02:51:43.315Z,17.90
2022-08-11T02:54:18.583Z,17.80
2022-08-11T02:56:55.632Z,17.80
2022-08-11T02:59:52.346Z,17.70
2022-08-11T03:02:41.132Z,17.60
2022-08-11T03:05:22.357Z,17.50
2022-08-11T03:08:12.472Z,17.50
2022-08-11T03:11:11.354Z,17.40
2022-08-11T03:14:02.202Z,17.30
2022-08-11T03:16:48.453Z,17.30
2022-08-11T03:19:23.965Z,17.30
2022-08-11T03:22:09.353Z,17.30
2022-08-11T03:24:52.358Z,17.30
2022-08-11T03:27:36.714Z,17.30
2022-08-11T03:30:13.886Z,17.30
2022-08-11T03:33:06.836Z,17.30
2022-08-11T03:35:40.213Z,17.30
2022-08-11T03:38:13.806Z,17.30
2022-08-11T03:42:03.579Z,17.30
2022-08-11T03:44:08.856Z,17.30
2022-08-11T03:46:54.804Z,17.20
2022-08-11T03:49:32.327Z,17.20
2022-08-11T03:52:14.211Z,17.20
2022-08-11T03:54:51.788Z,17.20
2022-08-11T03:57:51.144Z,17.20
2022-08-11T04:00:31.149Z,17.10
2022-08-11T04:03:46.877Z,17.10
2022-08-11T04:06:47.465Z,17.10
2022-08-11T04:09:54.988Z,17.00
2022-08-11T04:12:55.452Z,17.00
2022-08-11T04:16:11.849Z,17.00
2022-08-11T04:19:22.482Z,17.00
2022-08-11T04:22:23.331Z,17.00
2022-08-11T04:25:30.050Z,17.00
2022-08-11T04:28:32.070Z,17.00
2022-08-11T04:31:11.391Z,17.00
2022-08-11T04:34:01.507Z,17.00
2022-08-11T04:37:05.074Z,17.00
2022-08-11T04:39:55.416Z,17.00
2022-08-11T04:43:23.681Z,17.00
2022-08-11T04:46:06.851Z,17.00
2022-08-11T04:49:25.840Z,17.10
2022-08-11T04:52:44.741Z,17.10
2022-08-11T04:55:51.181Z,17.10
2022-08-11T04:58:44.351Z,17.10
2022-08-11T05:01:43.607Z,17.10
2022-08-11T05:04:49.420Z,17.20
2022-08-11T05:07:42.833Z,17.20
2022-08-11T05:10:29.829Z,17.20
2022-08-11T05:13:22.112Z,17.30
2022-08-11T05:16:11.915Z,17.30
2022-08-11T05:19:06.712Z,17.40
2022-08-11T05:22:04.816Z,17.40
2022-08-11T05:24:57.166Z,17.50
2022-08-11T05:27:51.629Z,17.60
2022-08-11T05:30:37.380Z,17.70
2022-08-11T05:33:28.409Z,17.80
2022-08-11T05:36:03.451Z,17.80
2022-08-11T05:38:52.485Z,17.90
2022-08-11T05:41:40.643Z,18.00
2022-08-11T05:44:29.854Z,18.10
2022-08-11T05:47:16.045Z,18.20
2022-08-11T05:50:08.116Z,18.30
2022-08-11T05:52:56.494Z,18.40
2022-08-11T05:56:01.773Z,18.60
2022-08-11T05:58:41.356Z,18.70
2022-08-11T06:01:12.849Z,18.90
2022-08-11T06:03:59.697Z,18.90
2022-08-11T06:06:30.081Z,19.00
2022-08-11T06:08:59.758Z,19.10
2022-08-11T06:11:42.971Z,19.10
2022-08-11T06:14:12.325Z,19.20
2022-08-11T06:16:43.031Z,19.30
2022-08-11T06:19:11.302Z,19.50
2022-08-11T06:21:39.468Z,19.60
2022-08-11T06:24:13.229Z,19.70
2022-08-11T06:27:01.566Z,19.70
2022-08-11T06:29:37.561Z,19.80
2022-08-11T06:32:17.601Z,20.00
2022-08-11T06:35:04.088Z,20.10
2022-08-11T06:37:43.574Z,20.30
2022-08-11T06:40:17.775Z,20.30
2022-08-11T06:42:52.690Z,20.50
2022-08-11T06:45:29.099Z,20.60
2022-08-11T06:48:01.039Z,20.80
2022-08-11T06:50:48.043Z,20.90
2022-08-11T06:53:18.984Z,21.00
2022-08-11T06:56:07.350Z,21.10
2022-08-11T06:58:57.238Z,21.20
2022-08-11T07:01:42.321Z,21.30
2022-08-11T07:04:23.686Z,21.40
2022-08-11T07:07:20.097Z,21.60
2022-08-11T07:10:39.769Z,21.70
2022-08-11T07:13:44.183Z,21.80
2022-08-11T07:16:18.560Z,21.90
2022-08-11T07:19:16.633Z,22.10
2022-08-11T07:22:05.365Z,22.20
2022-08-11T07:25:01.742Z,22.40
2022-08-11T07:28:00.939Z,22.60
2022-08-11T07:30:29.461Z,22.70
2022-08-11T07:33:00.472Z,22.80
2022-08-11T07:35:33.989Z,22.90
2022-08-11T07:38:20.647Z,23.10
2022-08-11T07:40:51.901Z,23.10
2022-08-11T07:43:20.052Z,23.20
2022-08-11T07:46:06.041Z,23.20
2022-08-11T07:48:53.459Z,23.30
2022-08-11T07:51:39.551Z,23.50
2022-08-11T07:54:16.942Z,23.70
2022-08-11T07:56:55.037Z,23.80
2022-08-11T08:00:04.258Z,23.90
2022-08-11T08:02:48.626Z,24.00
2022-08-11T08:05:36.189Z,24.10
2022-08-11T08:08:22.701Z,24.30
2022-08-11T08:11:10.929Z,24.40
2022-08-11T08:13:56.865Z,24.60
2022-08-11T08:16:42.343Z,24.80
2022-08-11T08:19:13.514Z,25.00
2022-08-11T08:21:42.141Z,25.20
2022-08-11T08:24:14.915Z,25.30
2022-08-11T08:27:00.372Z,25.30
2022-08-11T08:29:47.689Z,25.50
2022-08-11T08:32:18.677Z,25.60
2022-08-11T08:34:47.696Z,25.70
2022-08-11T08:37:46.177Z,25.80
2022-08-11T08:40:09.430Z,25.90
2022-08-11T08:42:45.225Z,26.00
2022-08-11T08:45:18.298Z,26.00
2022-08-11T08:47:53.452Z,26.10
2022-08-11T08:50:27.647Z,26.00
2022-08-11T08:53:00.882Z,26.10
2022-08-11T08:55:31.487Z,26.20
2022-08-11T08:58:01.926Z,26.40
2022-08-11T09:00:40.655Z,26.50
2022-08-11T09:03:36.415Z,26.70
2022-08-11T09:05:58.463Z,26.70
2022-08-11T09:08:27.529Z,26.70
2022-08-11T09:11:15.730Z,26.70
2022-08-11T09:14:05.509Z,26.80
2022-08-11T09:16:33.969Z,26.90
2022-08-11T09:19:02.862Z,27.10
2022-08-11T09:21:44.543Z,27.10
2022-08-11T09:24:36.246Z,27.20
2022-08-11T09:27:07.538Z,27.20
2022-08-11T09:29:38.975Z,27.10
2022-08-11T09:32:08.946Z,27.30
2022-08-11T09:34:38.278Z,27.40
2022-08-11T09:37:28.540Z,27.70
2022-08-11T09:40:29.992Z,27.80
2022-08-11T09:43:16.441Z,28.00
2022-08-11T09:45:50.544Z,28.00
2022-08-11T09:48:19.351Z,27.90
2022-08-11T09:50:52.125Z,27.90
2022-08-11T09:53:37.811Z,28.00
2022-08-11T09:56:30.473Z,28.10
2022-08-11T09:58:59.712Z,28.30
2022-08-11T10:01:32.141Z,28.40
2022-08-11T10:04:04.533Z,28.40
2022-08-11T10:06:54.061Z,28.30
2022-08-11T10:09:25.483Z,28.50
2022-08-11T10:11:57.982Z,28.60
2022-08-11T10:14:45.197Z,28.40
2022-08-11T10:17:17.057Z,28.60
2022-08-11T10:20:03.810Z,28.60
2022-08-11T10:22:51.989Z,28.70
2022-08-11T10:25:38.462Z,28.90
2022-08-11T10:28:28.840Z,29.00
2022-08-11T10:31:17.043Z,28.90
2022-08-11T10:34:03.672Z,29.20
2022-08-11T10:36:33.911Z,29.20
2022-08-11T10:39:07.012Z,29.20
2022-08-11T10:42:03.425Z,29.10
2022-08-11T10:44:40.094Z,29.10
2022-08-11T10:47:26.663Z,29.00
2022-08-11T10:50:11.680Z,28.90
2022-08-11T10:52:58.384Z,29.10
2022-08-11T10:55:45.858Z,29.20
2022-08-11T10:58:50.347Z,29.40
2022-08-11T11:01:34.522Z,29.40
2022-08-11T11:04:07.705Z,29.50
2022-08-11T11:06:44.714Z,29.60
2022-08-11T11:09:18.067Z,29.70
2022-08-11T11:12:08.046Z,29.70
2022-08-11T11:14:59.046Z,29.80
2022-08-11T11:17:50.617Z,30.00
2022-08-11T11:20:36.335Z,30.10
2022-08-11T11:23:11.035Z,30.00
2022-08-11T11:26:06.354Z,30.10
2022-08-11T11:28:58.853Z,30.10
2022-08-11T11:31:36.459Z,30.20
2022-08-11T11:34:22.788Z,30.20
2022-08-11T11:36:54.913Z,30.20
2022-08-11T11:39:26.497Z,30.30
2022-08-11T11:41:55.764Z,30.30
2022-08-11T11:44:24.889Z,30.30
2022-08-11T11:46:56.594Z,30.40
2022-08-11T11:49:29.014Z,30.40
2022-08-11T11:51:58.834Z,30.50
2022-08-11T11:54:33.713Z,30.40
2022-08-11T11:57:26.081Z,30.60
2022-08-11T12:00:12.755Z,30.60
2022-08-11T12:02:43.040Z,30.70
2022-08-11T12:05:12.888Z,30.70
2022-08-11T12:08:12.633Z,30.60
2022-08-11T12:10:46.385Z,30.70
2022-08-11T12:13:34.073Z,30.80
2022-08-11T12:16:33.125Z,30.90
2022-08-11T12:18:54.820Z,31.10
2022-08-11T12:21:24.281Z,31.10
2022-08-11T12:24:10.352Z,31.20
2022-08-11T12:27:14.658Z,31.30
2022-08-11T12:29:44.074Z,31.40
2022-08-11T12:32:12.693Z,31.30
2022-08-11T12:34:40.770Z,31.40
2022-08-11T12:37:13.510Z,31.50
2022-08-11T12:40:16.264Z,31.80
2022-08-11T12:43:21.072Z,31.80
2022-08-11T12:45:58.292Z,31.90
2022-08-11T12:48:58.720Z,32.00
2022-08-11T12:52:11.466Z,32.00
2022-08-11T12:54:57.144Z,32.00
2022-08-11T12:57:46.950Z,32.10
2022-08-11T13:00:35.016Z,32.20
2022-08-11T13:03:21.472Z,32.20
2022-08-11T13:05:53.137Z,32.30
2022-08-11T13:08:23.081Z,32.20
2022-08-11T13:11:09.903Z,32.40
2022-08-11T13:13:54.949Z,32.50
2022-08-11T13:16:29.162Z,32.60
2022-08-11T13:18:58.632Z,33.00
2022-08-11T13:21:28.456Z,33.20
2022-08-11T13:24:00.758Z,33.30
2022-08-11T13:26:48.191Z,33.10
2022-08-11T13:29:22.936Z,33.30
2022-08-11T13:31:54.942Z,33.30
2022-08-11T13:34:25.191Z,33.50
2022-08-11T13:36:55.487Z,33.50
2022-08-11T13:39:25.031Z,33.40
2022-08-11T13:41:56.506Z,33.60
2022-08-11T13:44:28.083Z,33.40
2022-08-11T13:47:01.046Z,33.50
2022-08-11T13:49:30.593Z,33.40
2022-08-11T13:51:59.549Z,33.90
2022-08-11T13:54:30.944Z,34.40
2022-08-11T13:57:04.089Z,34.70
2022-08-11T13:59:52.110Z,35.50
2022-08-11T14:02:30.201Z,35.60
2022-08-11T14:05:03.981Z,35.80
2022-08-11T14:07:36.439Z,35.90
2022-08-11T14:10:07.078Z,36.50
2022-08-11T14:12:55.505Z,36.80
2022-08-11T14:15:25.333Z,36.70
2022-08-11T14:18:01.114Z,36.90
2022-08-11T14:20:52.825Z,37.10
2022-08-11T14:23:26.152Z,37.30
2022-08-11T14:26:12.933Z,37.80
2022-08-11T14:28:45.113Z,37.70
2022-08-11T14:31:15.749Z,37.50
2022-08-11T14:34:00.948Z,37.60
2022-08-11T14:36:33.892Z,37.70
2022-08-11T14:39:05.144Z,37.30
2022-08-11T14:42:11.893Z,37.40
2022-08-11T14:44:57.626Z,37.90
2022-08-11T14:47:26.745Z,38.00
2022-08-11T14:50:10.267Z,38.00
2022-08-11T14:52:44.574Z,37.70
2022-08-11T14:55:31.861Z,37.10
2022-08-11T14:58:01.704Z,37.30
2022-08-11T15:00:30.254Z,37.40
2022-08-11T15:03:11.542Z,38.00
2022-08-11T15:05:56.194Z,38.40
2022-08-11T15:08:41.416Z,38.60
2022-08-11T15:11:32.173Z,38.50
2022-08-11T15:14:01.419Z,38.00
2022-08-11T15:16:48.109Z,38.10
2022-08-11T15:19:16.695Z,38.50
2022-08-11T15:22:03.629Z,38.30
2022-08-11T15:24:33.531Z,37.90
2022-08-11T15:27:20.086Z,38.50
2022-08-11T15:30:06.525Z,38.80
2022-08-11T15:32:53.232Z,38.60
2022-08-11T15:35:39.793Z,37.30
2022-08-11T15:38:14.020Z,37.40
2022-08-11T15:41:01.685Z,37.30
2022-08-11T15:43:51.378Z,37.60
2022-08-11T15:46:24.459Z,38.00
2022-08-11T15:48:58.928Z,38.10
2022-08-11T15:51:34.528Z,37.70
2022-08-11T15:54:09.455Z,37.60
2022-08-11T15:56:41.001Z,37.60
2022-08-11T15:59:43.007Z,38.00
2022-08-11T16:02:33.002Z,38.20
2022-08-11T16:05:07.247Z,37.90
2022-08-11T16:07:40.847Z,37.00
2022-08-11T16:10:19.346Z,38.00
2022-08-11T16:13:22.405Z,38.30
2022-08-11T16:16:10.888Z,38.10
2022-08-11T16:18:47.030Z,37.80
2022-08-11T16:21:33.481Z,37.90
2022-08-11T16:24:06.975Z,37.70
2022-08-11T16:27:09.295Z,37.50
2022-08-11T16:29:32.092Z,37.60
2022-08-11T16:32:20.590Z,37.70
2022-08-11T16:35:13.173Z,37.70
2022-08-11T16:38:00.124Z,38.10
2022-08-11T16:40:29.420Z,38.00
2022-08-11T16:43:18.207Z,38.10
2022-08-11T16:46:04.272Z,37.40
2022-08-11T16:48:38.255Z,37.00
2022-08-11T16:51:08.026Z,36.90
2022-08-11T16:54:00.131Z,36.70
2022-08-11T16:56:29.082Z,36.30
2022-08-11T16:59:16.308Z,35.30
2022-08-11T17:01:55.471Z,34.90
2022-08-11T17:04:48.698Z,34.30
2022-08-11T17:07:41.691Z,34.00
2022-08-11T17:10:51.924Z,33.60
2022-08-11T17:13:25.170Z,33.20
2022-08-11T17:16:07.913Z,33.10
2022-08-11T17:18:42.938Z,32.80
2022-08-11T17:21:14.771Z,32.50
2022-08-11T17:23:49.914Z,32.30
2022-08-11T17:26:27.707Z,32.30
2022-08-11T17:28:59.127Z,32.00
2022-08-11T17:31:47.923Z,31.70
2022-08-11T17:34:33.703Z,31.60
2022-08-11T17:37:02.203Z,31.40
2022-08-11T17:39:32.683Z,31.30
2022-08-11T17:42:20.064Z,31.20
2022-08-11T17:45:07.580Z,31.10
2022-08-11T17:47:54.652Z,31.00
2022-08-11T17:50:23.216Z,30.80
2022-08-11T17:53:10.095Z,30.80
2022-08-11T17:55:57.792Z,30.70
2022-08-11T17:58:45.371Z,30.50
2022-08-11T18:01:15.028Z,30.40
2022-08-11T18:03:57.654Z,30.30
2022-08-11T18:06:33.703Z,30.30
2022-08-11T18:09:22.874Z,30.10
2022-08-11T18:12:12.823Z,30.10
2022-08-11T18:15:00.500Z,29.90
2022-08-11T18:17:46.144Z,29.80
2022-08-11T18:20:33.333Z,29.60
2022-08-11T18:23:46.282Z,29.60
2022-08-11T18:26:30.664Z,29.50
2022-08-11T18:29:17.920Z,29.40
2022-08-11T18:32:08.103Z,29.30
2022-08-11T18:34:58.912Z,29.00
2022-08-11T18:37:49.447Z,28.90
2022-08-11T18:40:38.566Z,28.70
2022-08-11T18:43:27.785Z,28.50
2022-08-11T18:46:19.267Z,28.30
2022-08-11T18:49:13.253Z,28.20
2022-08-11T18:52:05.739Z,28.00
2022-08-11T18:54:55.210Z,27.80
2022-08-11T18:57:53.830Z,27.70
2022-08-11T19:00:41.751Z,27.50
2022-08-11T19:03:29.646Z,27.40
2022-08-11T19:06:38.478Z,27.20
2022-08-11T19:09:26.123Z,27.10
2022-08-11T19:12:14.685Z,26.90
2022-08-11T19:15:01.732Z,26.80
2022-08-11T19:17:49.720Z,26.70
2022-08-11T19:20:39.769Z,26.60
2022-08-11T19:23:29.154Z,26.40
2022-08-11T19:26:16.502Z,26.30
2022-08-11T19:29:06.390Z,26.10
2022-08-11T19:31:52.661Z,26.00
2022-08-11T19:34:42.884Z,25.80
2022-08-11T19:37:29.567Z,25.70
2022-08-11T19:40:19.210Z,25.60
2022-08-11T19:43:18.812Z,25.50
2022-08-11T19:46:15.969Z,25.40
2022-08-11T19:49:03.271Z,25.20
2022-08-11T19:51:54.021Z,25.20
2022-08-11T19:54:43.229Z,25.00
2022-08-11T19:57:29.261Z,24.90
2022-08-11T20:00:15.294Z,24.80
2022-08-11T20:03:05.988Z,24.70
2022-08-11T20:05:59.986Z,24.60
2022-08-11T20:08:47.457Z,24.50
2022-08-11T20:11:35.963Z,24.40
2022-08-11T20:14:23.512Z,24.40
2022-08-11T20:17:11.536Z,24.30
2022-08-11T20:22:49.100Z,24.10
2022-08-11T20:25:36.492Z,24.00
2022-08-11T20:28:24.013Z,23.80
2022-08-11T20:31:10.586Z,23.80
2022-08-11T20:33:57.142Z,23.70
2022-08-11T20:36:47.597Z,23.60
2022-08-11T20:39:42.257Z,23.50
2022-08-11T20:42:31.004Z,23.40
2022-08-11T20:45:23.450Z,23.30
2022-08-11T20:48:10.649Z,23.20
2022-08-11T20:51:06.249Z,23.10
2022-08-11T20:53:57.233Z,23.00
2022-08-11T20:56:45.522Z,23.00
2022-08-11T20:59:38.501Z,22.90
2022-08-11T21:02:40.907Z,22.80
2022-08-11T21:06:10.350Z,22.70
2022-08-11T21:08:36.409Z,22.60
2022-08-11T21:11:27.611Z,22.50
2022-08-11T21:14:15.674Z,22.40
2022-08-11T21:17:04.450Z,22.30
2022-08-11T21:20:20.319Z,22.20
2022-08-11T21:23:19.908Z,22.10
2022-08-11T21:26:24.406Z,22.10
2022-08-11T21:29:16.929Z,21.90
2022-08-11T21:32:08.268Z,21.80
2022-08-11T21:34:58.482Z,21.70
2022-08-11T21:37:50.306Z,21.70
2022-08-11T21:40:42.657Z,21.70
2022-08-11T21:43:35.590Z,21.60
2022-08-11T21:46:27.093Z,21.50
2022-08-11T21:49:19.781Z,21.50
2022-08-11T21:52:05.518Z,21.40
2022-08-11T21:54:51.197Z,21.40
2022-08-11T21:57:37.285Z,21.30
2022-08-11T22:00:33.749Z,21.20
2022-08-11T22:03:21.049Z,21.10
2022-08-11T22:06:07.249Z,21.10
2022-08-11T22:08:52.920Z,21.00
2022-08-11T22:11:39.200Z,21.00
2022-08-11T22:14:28.368Z,20.90
2022-08-11T22:17:14.247Z,20.90
2022-08-11T22:20:02.461Z,20.80
2022-08-11T22:22:52.700Z,20.70
2022-08-11T22:25:49.937Z,20.70
2022-08-11T22:28:38.408Z,20.70
2022-08-11T22:31:25.531Z,20.60
2022-08-11T22:34:11.502Z,20.60
2022-08-11T22:37:00.486Z,20.50
2022-08-11T22:40:01.772Z,20.40
2022-08-11T22:42:49.166Z,20.30
2022-08-11T22:45:34.875Z,20.20
2022-08-11T22:48:23.048Z,20.20
2022-08-11T22:51:09.879Z,20.20
2022-08-11T22:53:59.117Z,20.20
2022-08-11T22:56:46.254Z,20.20
2022-08-11T22:59:32.572Z,20.30
2022-08-11T23:02:18.803Z,20.30
2022-08-11T23:05:05.899Z,20.30
2022-08-11T23:07:52.108Z,20.40
2022-08-11T23:10:40.351Z,20.30
2022-08-11T23:13:26.815Z,20.30
2022-08-11T23:16:13.869Z,20.20
2022-08-11T23:18:59.986Z,20.10
2022-08-11T23:21:46.931Z,19.90
2022-08-11T23:24:32.691Z,19.80
2022-08-11T23:27:21.511Z,19.70
2022-08-11T23:30:09.333Z,19.60
2022-08-11T23:32:57.227Z,19.60
2022-08-11T23:35:53.976Z,19.60
2022-08-11T23:38:42.752Z,19.50
2022-08-11T23:41:29.265Z,19.50
2022-08-11T23:44:17.077Z,19.40
2022-08-11T23:47:03.103Z,19.40
2022-08-11T23:49:48.651Z,19.30
2022-08-11T23:52:35.230Z,19.30
2022-08-11T23:55:21.392Z,19.20
2022-08-11T23:58:07.356Z,19.20
